sensor_id;sensor_type;location;lat;lon;timestamp;P1;durP1;ratioP1;P2;durP2;ratioP2
14251;SDS011;7210;51.502;10.722;2022-12-18T00:01:26;39.63;;;20.90;;
14251;SDS011;7210;51.502;10.722;2022-12-18T00:03:58;48.33;;;22.90;;
14251;SDS011;7210;51.502;10.722;2022-12-18T00:06:27;48.07;;;21.87;;
14251;SDS011;7210;51.502;10.722;2022-12-18T00:08:56;52.83;;;22.30;;
14251;SDS011;7210;51.502;10.722;2022-12-18T00:11:27;49.83;;;22.53;;
14251;SDS011;7210;51.502;10.722;2022-12-18T00:13:58;52.73;;;22.90;;
14251;SDS011;7210;51.502;10.722;2022-12-18T00:16:26;65.43;;;23.80;;
14251;SDS011;7210;51.502;10.722;2022-12-18T00:18:58;73.03;;;24.20;;
14251;SDS011;7210;51.502;10.722;2022-12-18T00:21:26;68.00;;;21.37;;
14251;SDS011;7210;51.502;10.722;2022-12-18T00:23:56;74.60;;;20.73;;
14251;SDS011;7210;51.502;10.722;2022-12-18T00:26:25;58.57;;;20.10;;
14251;SDS011;7210;51.502;10.722;2022-12-18T00:28:59;80.43;;;19.87;;
14251;SDS011;7210;51.502;10.722;2022-12-18T00:31:29;61.50;;;20.87;;
14251;SDS011;7210;51.502;10.722;2022-12-18T00:33:58;98.70;;;22.17;;
14251;SDS011;7210;51.502;10.722;2022-12-18T00:36:26;71.93;;;21.97;;
14251;SDS011;7210;51.502;10.722;2022-12-18T00:39:01;55.27;;;19.40;;
14251;SDS011;7210;51.502;10.722;2022-12-18T00:41:31;35.87;;;17.43;;
14251;SDS011;7210;51.502;10.722;2022-12-18T00:44:18;40.57;;;17.63;;
14251;SDS011;7210;51.502;10.722;2022-12-18T00:46:46;45.23;;;18.90;;
14251;SDS011;7210;51.502;10.722;2022-12-18T00:49:15;62.90;;;20.07;;
14251;SDS011;7210;51.502;10.722;2022-12-18T00:51:44;62.97;;;19.03;;
14251;SDS011;7210;51.502;10.722;2022-12-18T00:54:11;71.33;;;20.00;;
14251;SDS011;7210;51.502;10.722;2022-12-18T00:56:39;76.17;;;21.77;;
14251;SDS011;7210;51.502;10.722;2022-12-18T00:59:07;42.83;;;18.43;;
14251;SDS011;7210;51.502;10.722;2022-12-18T01:01:35;43.20;;;17.90;;
14251;SDS011;7210;51.502;10.722;2022-12-18T01:04:03;75.67;;;19.73;;
14251;SDS011;7210;51.502;10.722;2022-12-18T01:06:31;55.90;;;19.80;;
14251;SDS011;7210;51.502;10.722;2022-12-18T01:08:58;45.27;;;18.57;;
14251;SDS011;7210;51.502;10.722;2022-12-18T01:11:25;47.37;;;17.33;;
14251;SDS011;7210;51.502;10.722;2022-12-18T01:13:53;69.90;;;19.63;;
14251;SDS011;7210;51.502;10.722;2022-12-18T01:16:22;58.43;;;22.13;;
14251;SDS011;7210;51.502;10.722;2022-12-18T01:18:52;48.50;;;17.67;;
14251;SDS011;7210;51.502;10.722;2022-12-18T01:21:20;44.30;;;16.87;;
14251;SDS011;7210;51.502;10.722;2022-12-18T01:23:50;32.13;;;15.50;;
14251;SDS011;7210;51.502;10.722;2022-12-18T01:26:19;67.57;;;18.13;;
14251;SDS011;7210;51.502;10.722;2022-12-18T01:28:47;33.53;;;16.17;;
14251;SDS011;7210;51.502;10.722;2022-12-18T01:31:16;26.10;;;16.20;;
14251;SDS011;7210;51.502;10.722;2022-12-18T01:33:46;29.60;;;15.33;;
14251;SDS011;7210;51.502;10.722;2022-12-18T01:36:15;25.07;;;16.50;;
14251;SDS011;7210;51.502;10.722;2022-12-18T01:38:45;27.50;;;15.93;;
14251;SDS011;7210;51.502;10.722;2022-12-18T01:41:20;23.47;;;14.97;;
14251;SDS011;7210;51.502;10.722;2022-12-18T01:43:52;29.33;;;15.80;;
14251;SDS011;7210;51.502;10.722;2022-12-18T01:46:22;24.97;;;15.73;;
14251;SDS011;7210;51.502;10.722;2022-12-18T01:48:55;24.80;;;15.73;;
14251;SDS011;7210;51.502;10.722;2022-12-18T01:51:27;24.27;;;16.27;;
14251;SDS011;7210;51.502;10.722;2022-12-18T01:53:57;27.50;;;15.53;;
14251;SDS011;7210;51.502;10.722;2022-12-18T01:56:26;33.73;;;17.17;;
14251;SDS011;7210;51.502;10.722;2022-12-18T01:58:54;30.23;;;16.90;;
14251;SDS011;7210;51.502;10.722;2022-12-18T02:01:28;36.50;;;16.93;;
14251;SDS011;7210;51.502;10.722;2022-12-18T02:04:13;31.03;;;16.97;;
14251;SDS011;7210;51.502;10.722;2022-12-18T02:06:49;33.90;;;16.57;;
14251;SDS011;7210;51.502;10.722;2022-12-18T02:09:25;34.83;;;17.83;;
14251;SDS011;7210;51.502;10.722;2022-12-18T02:12:04;32.13;;;17.67;;
14251;SDS011;7210;51.502;10.722;2022-12-18T02:14:43;33.80;;;16.73;;
14251;SDS011;7210;51.502;10.722;2022-12-18T02:17:21;27.57;;;16.00;;
14251;SDS011;7210;51.502;10.722;2022-12-18T02:19:59;31.87;;;15.77;;
14251;SDS011;7210;51.502;10.722;2022-12-18T02:22:42;36.53;;;16.80;;
14251;SDS011;7210;51.502;10.722;2022-12-18T02:25:40;35.93;;;16.03;;
14251;SDS011;7210;51.502;10.722;2022-12-18T02:28:33;24.37;;;14.07;;
14251;SDS011;7210;51.502;10.722;2022-12-18T02:31:09;42.97;;;15.93;;
14251;SDS011;7210;51.502;10.722;2022-12-18T02:33:42;33.90;;;16.17;;
14251;SDS011;7210;51.502;10.722;2022-12-18T02:36:12;26.30;;;15.53;;
14251;SDS011;7210;51.502;10.722;2022-12-18T02:38:48;34.17;;;16.03;;
14251;SDS011;7210;51.502;10.722;2022-12-18T02:41:20;26.27;;;15.87;;
14251;SDS011;7210;51.502;10.722;2022-12-18T02:43:53;30.37;;;15.87;;
14251;SDS011;7210;51.502;10.722;2022-12-18T02:46:24;37.87;;;16.33;;
14251;SDS011;7210;51.502;10.722;2022-12-18T02:49:05;38.73;;;16.97;;
14251;SDS011;7210;51.502;10.722;2022-12-18T02:51:48;37.37;;;15.00;;
14251;SDS011;7210;51.502;10.722;2022-12-18T02:54:35;29.60;;;15.53;;
14251;SDS011;7210;51.502;10.722;2022-12-18T02:57:18;28.70;;;15.00;;
14251;SDS011;7210;51.502;10.722;2022-12-18T02:59:56;37.17;;;17.60;;
14251;SDS011;7210;51.502;10.722;2022-12-18T03:02:33;32.43;;;16.63;;
14251;SDS011;7210;51.502;10.722;2022-12-18T03:05:08;24.03;;;14.70;;
14251;SDS011;7210;51.502;10.722;2022-12-18T03:07:45;34.63;;;16.63;;
14251;SDS011;7210;51.502;10.722;2022-12-18T03:10:21;33.97;;;16.10;;
14251;SDS011;7210;51.502;10.722;2022-12-18T03:12:58;29.97;;;16.43;;
14251;SDS011;7210;51.502;10.722;2022-12-18T03:15:31;26.20;;;15.03;;
14251;SDS011;7210;51.502;10.722;2022-12-18T03:18:10;28.70;;;15.93;;
14251;SDS011;7210;51.502;10.722;2022-12-18T03:20:44;28.60;;;13.93;;
14251;SDS011;7210;51.502;10.722;2022-12-18T03:23:20;29.60;;;16.50;;
14251;SDS011;7210;51.502;10.722;2022-12-18T03:25:54;23.20;;;14.33;;
14251;SDS011;7210;51.502;10.722;2022-12-18T03:28:29;29.83;;;14.80;;
14251;SDS011;7210;51.502;10.722;2022-12-18T03:31:03;41.67;;;15.50;;
14251;SDS011;7210;51.502;10.722;2022-12-18T03:33:37;41.23;;;15.07;;
14251;SDS011;7210;51.502;10.722;2022-12-18T03:36:12;29.57;;;13.80;;
14251;SDS011;7210;51.502;10.722;2022-12-18T03:38:41;33.30;;;15.27;;
14251;SDS011;7210;51.502;10.722;2022-12-18T03:41:11;26.50;;;15.07;;
14251;SDS011;7210;51.502;10.722;2022-12-18T03:44:20;20.67;;;13.90;;
14251;SDS011;7210;51.502;10.722;2022-12-18T03:46:58;30.67;;;15.33;;
14251;SDS011;7210;51.502;10.722;2022-12-18T03:49:34;23.40;;;14.17;;
14251;SDS011;7210;51.502;10.722;2022-12-18T03:52:13;31.80;;;15.80;;
14251;SDS011;7210;51.502;10.722;2022-12-18T03:54:48;40.83;;;16.33;;
14251;SDS011;7210;51.502;10.722;2022-12-18T03:57:18;37.60;;;15.83;;
14251;SDS011;7210;51.502;10.722;2022-12-18T03:59:54;27.80;;;15.17;;
14251;SDS011;7210;51.502;10.722;2022-12-18T04:02:39;27.53;;;14.87;;
14251;SDS011;7210;51.502;10.722;2022-12-18T04:05:18;33.13;;;14.43;;
14251;SDS011;7210;51.502;10.722;2022-12-18T04:07:48;34.63;;;14.30;;
14251;SDS011;7210;51.502;10.722;2022-12-18T04:10:17;35.83;;;15.80;;
14251;SDS011;7210;51.502;10.722;2022-12-18T04:12:45;26.50;;;14.87;;
14251;SDS011;7210;51.502;10.722;2022-12-18T04:15:15;28.03;;;15.63;;
14251;SDS011;7210;51.502;10.722;2022-12-18T04:17:46;26.17;;;15.00;;
14251;SDS011;7210;51.502;10.722;2022-12-18T04:20:18;24.07;;;14.53;;
14251;SDS011;7210;51.502;10.722;2022-12-18T04:22:46;25.20;;;14.27;;
14251;SDS011;7210;51.502;10.722;2022-12-18T04:25:14;24.87;;;15.10;;
14251;SDS011;7210;51.502;10.722;2022-12-18T04:27:54;23.60;;;14.20;;
14251;SDS011;7210;51.502;10.722;2022-12-18T04:30:23;25.50;;;13.87;;
14251;SDS011;7210;51.502;10.722;2022-12-18T04:32:50;23.43;;;14.10;;
14251;SDS011;7210;51.502;10.722;2022-12-18T04:35:19;24.07;;;14.63;;
14251;SDS011;7210;51.502;10.722;2022-12-18T04:37:46;23.93;;;14.90;;
14251;SDS011;7210;51.502;10.722;2022-12-18T04:40:14;31.90;;;17.50;;
14251;SDS011;7210;51.502;10.722;2022-12-18T04:42:45;24.93;;;16.07;;
14251;SDS011;7210;51.502;10.722;2022-12-18T04:45:12;27.27;;;15.00;;
14251;SDS011;7210;51.502;10.722;2022-12-18T04:47:41;24.50;;;15.03;;
14251;SDS011;7210;51.502;10.722;2022-12-18T04:50:12;26.20;;;13.60;;
14251;SDS011;7210;51.502;10.722;2022-12-18T04:52:39;27.90;;;16.37;;
14251;SDS011;7210;51.502;10.722;2022-12-18T04:55:07;25.37;;;15.17;;
14251;SDS011;7210;51.502;10.722;2022-12-18T04:57:35;31.90;;;14.80;;
14251;SDS011;7210;51.502;10.722;2022-12-18T05:00:02;34.43;;;14.00;;
14251;SDS011;7210;51.502;10.722;2022-12-18T05:02:31;47.80;;;14.53;;
14251;SDS011;7210;51.502;10.722;2022-12-18T05:05:00;31.63;;;15.00;;
14251;SDS011;7210;51.502;10.722;2022-12-18T05:07:27;24.83;;;13.90;;
14251;SDS011;7210;51.502;10.722;2022-12-18T05:09:55;29.27;;;16.57;;
14251;SDS011;7210;51.502;10.722;2022-12-18T05:12:22;28.00;;;14.00;;
14251;SDS011;7210;51.502;10.722;2022-12-18T05:14:50;23.77;;;14.50;;
14251;SDS011;7210;51.502;10.722;2022-12-18T05:17:17;29.93;;;14.53;;
14251;SDS011;7210;51.502;10.722;2022-12-18T05:19:45;36.47;;;15.90;;
14251;SDS011;7210;51.502;10.722;2022-12-18T05:22:13;41.37;;;14.20;;
14251;SDS011;7210;51.502;10.722;2022-12-18T05:24:41;20.47;;;13.73;;
14251;SDS011;7210;51.502;10.722;2022-12-18T05:27:08;42.97;;;15.37;;
14251;SDS011;7210;51.502;10.722;2022-12-18T05:29:35;44.50;;;15.37;;
14251;SDS011;7210;51.502;10.722;2022-12-18T05:32:03;35.47;;;15.63;;
14251;SDS011;7210;51.502;10.722;2022-12-18T05:34:30;34.17;;;14.93;;
14251;SDS011;7210;51.502;10.722;2022-12-18T05:36:58;72.57;;;16.07;;
14251;SDS011;7210;51.502;10.722;2022-12-18T05:39:27;52.33;;;15.43;;
14251;SDS011;7210;51.502;10.722;2022-12-18T05:41:54;34.23;;;16.17;;
14251;SDS011;7210;51.502;10.722;2022-12-18T05:44:22;41.80;;;15.50;;
14251;SDS011;7210;51.502;10.722;2022-12-18T05:46:54;36.73;;;15.07;;
14251;SDS011;7210;51.502;10.722;2022-12-18T05:49:21;46.77;;;16.10;;
14251;SDS011;7210;51.502;10.722;2022-12-18T05:51:49;35.73;;;14.57;;
14251;SDS011;7210;51.502;10.722;2022-12-18T05:54:16;36.60;;;14.80;;
14251;SDS011;7210;51.502;10.722;2022-12-18T05:56:45;55.53;;;16.37;;
14251;SDS011;7210;51.502;10.722;2022-12-18T05:59:12;58.80;;;16.20;;
14251;SDS011;7210;51.502;10.722;2022-12-18T06:01:39;45.50;;;15.83;;
14251;SDS011;7210;51.502;10.722;2022-12-18T06:04:08;43.03;;;16.07;;
14251;SDS011;7210;51.502;10.722;2022-12-18T06:06:35;46.23;;;17.13;;
14251;SDS011;7210;51.502;10.722;2022-12-18T06:09:03;42.27;;;15.30;;
14251;SDS011;7210;51.502;10.722;2022-12-18T06:11:33;33.33;;;15.07;;
14251;SDS011;7210;51.502;10.722;2022-12-18T06:14:04;46.63;;;16.57;;
14251;SDS011;7210;51.502;10.722;2022-12-18T06:16:33;34.47;;;15.97;;
14251;SDS011;7210;51.502;10.722;2022-12-18T06:19:01;24.23;;;14.67;;
14251;SDS011;7210;51.502;10.722;2022-12-18T06:21:31;38.50;;;15.97;;
14251;SDS011;7210;51.502;10.722;2022-12-18T06:23:59;27.27;;;12.93;;
14251;SDS011;7210;51.502;10.722;2022-12-18T06:26:26;43.90;;;16.07;;
14251;SDS011;7210;51.502;10.722;2022-12-18T06:28:54;65.40;;;25.33;;
14251;SDS011;7210;51.502;10.722;2022-12-18T06:31:23;37.73;;;21.43;;
14251;SDS011;7210;51.502;10.722;2022-12-18T06:33:50;30.00;;;14.23;;
14251;SDS011;7210;51.502;10.722;2022-12-18T06:36:18;34.53;;;15.50;;
14251;SDS011;7210;51.502;10.722;2022-12-18T06:38:46;37.03;;;15.77;;
14251;SDS011;7210;51.502;10.722;2022-12-18T06:41:13;37.87;;;15.53;;
14251;SDS011;7210;51.502;10.722;2022-12-18T06:43:44;34.47;;;14.73;;
14251;SDS011;7210;51.502;10.722;2022-12-18T06:46:12;34.47;;;15.10;;
14251;SDS011;7210;51.502;10.722;2022-12-18T06:48:41;26.63;;;14.40;;
14251;SDS011;7210;51.502;10.722;2022-12-18T06:51:08;31.97;;;15.33;;
14251;SDS011;7210;51.502;10.722;2022-12-18T06:53:36;29.30;;;16.80;;
14251;SDS011;7210;51.502;10.722;2022-12-18T06:56:04;29.97;;;15.13;;
14251;SDS011;7210;51.502;10.722;2022-12-18T06:58:34;30.73;;;16.67;;
14251;SDS011;7210;51.502;10.722;2022-12-18T07:01:01;29.07;;;14.60;;
14251;SDS011;7210;51.502;10.722;2022-12-18T07:03:30;31.47;;;15.80;;
14251;SDS011;7210;51.502;10.722;2022-12-18T07:05:59;30.07;;;15.60;;
14251;SDS011;7210;51.502;10.722;2022-12-18T07:08:26;28.53;;;16.60;;
14251;SDS011;7210;51.502;10.722;2022-12-18T07:10:55;29.77;;;16.77;;
14251;SDS011;7210;51.502;10.722;2022-12-18T07:13:23;47.93;;;18.93;;
14251;SDS011;7210;51.502;10.722;2022-12-18T07:15:50;34.47;;;16.27;;
14251;SDS011;7210;51.502;10.722;2022-12-18T07:18:17;43.77;;;17.13;;
14251;SDS011;7210;51.502;10.722;2022-12-18T07:20:45;45.53;;;16.23;;
14251;SDS011;7210;51.502;10.722;2022-12-18T07:23:13;33.50;;;16.50;;
14251;SDS011;7210;51.502;10.722;2022-12-18T07:25:41;38.87;;;16.37;;
14251;SDS011;7210;51.502;10.722;2022-12-18T07:28:08;47.47;;;17.13;;
14251;SDS011;7210;51.502;10.722;2022-12-18T07:30:36;48.13;;;15.60;;
14251;SDS011;7210;51.502;10.722;2022-12-18T07:33:18;50.97;;;16.73;;
14251;SDS011;7210;51.502;10.722;2022-12-18T07:35:46;43.23;;;15.90;;
14251;SDS011;7210;51.502;10.722;2022-12-18T07:38:16;38.57;;;16.33;;
14251;SDS011;7210;51.502;10.722;2022-12-18T07:40:43;47.03;;;17.43;;
14251;SDS011;7210;51.502;10.722;2022-12-18T07:43:10;36.43;;;16.07;;
14251;SDS011;7210;51.502;10.722;2022-12-18T07:45:38;68.10;;;18.03;;
14251;SDS011;7210;51.502;10.722;2022-12-18T07:48:06;58.80;;;20.93;;
14251;SDS011;7210;51.502;10.722;2022-12-18T07:50:34;73.73;;;22.80;;
14251;SDS011;7210;51.502;10.722;2022-12-18T07:53:01;56.33;;;19.50;;
14251;SDS011;7210;51.502;10.722;2022-12-18T07:55:31;54.80;;;19.70;;
14251;SDS011;7210;51.502;10.722;2022-12-18T07:58:03;51.03;;;18.00;;
14251;SDS011;7210;51.502;10.722;2022-12-18T08:00:32;47.30;;;18.43;;
14251;SDS011;7210;51.502;10.722;2022-12-18T08:03:00;83.17;;;37.97;;
14251;SDS011;7210;51.502;10.722;2022-12-18T08:05:27;46.43;;;20.63;;
14251;SDS011;7210;51.502;10.722;2022-12-18T08:07:55;70.97;;;24.40;;
14251;SDS011;7210;51.502;10.722;2022-12-18T08:10:23;98.30;;;36.10;;
14251;SDS011;7210;51.502;10.722;2022-12-18T08:12:53;110.70;;;39.20;;
14251;SDS011;7210;51.502;10.722;2022-12-18T08:15:21;90.30;;;21.33;;
14251;SDS011;7210;51.502;10.722;2022-12-18T08:17:48;70.23;;;20.37;;
14251;SDS011;7210;51.502;10.722;2022-12-18T08:20:15;53.97;;;19.70;;
14251;SDS011;7210;51.502;10.722;2022-12-18T08:22:43;57.90;;;20.00;;
14251;SDS011;7210;51.502;10.722;2022-12-18T08:25:10;72.57;;;20.73;;
14251;SDS011;7210;51.502;10.722;2022-12-18T08:27:38;51.63;;;20.33;;
14251;SDS011;7210;51.502;10.722;2022-12-18T08:30:07;52.73;;;19.03;;
14251;SDS011;7210;51.502;10.722;2022-12-18T08:32:36;59.03;;;18.73;;
14251;SDS011;7210;51.502;10.722;2022-12-18T08:35:04;70.13;;;28.60;;
14251;SDS011;7210;51.502;10.722;2022-12-18T08:37:33;52.43;;;21.27;;
14251;SDS011;7210;51.502;10.722;2022-12-18T08:40:01;52.40;;;19.63;;
14251;SDS011;7210;51.502;10.722;2022-12-18T08:42:28;53.90;;;19.40;;
14251;SDS011;7210;51.502;10.722;2022-12-18T08:45:20;63.83;;;19.63;;
14251;SDS011;7210;51.502;10.722;2022-12-18T08:47:47;47.67;;;19.47;;
14251;SDS011;7210;51.502;10.722;2022-12-18T08:50:14;57.70;;;18.93;;
14251;SDS011;7210;51.502;10.722;2022-12-18T08:52:42;49.07;;;19.23;;
14251;SDS011;7210;51.502;10.722;2022-12-18T08:55:12;33.67;;;19.13;;
14251;SDS011;7210;51.502;10.722;2022-12-18T08:57:40;53.30;;;19.70;;
14251;SDS011;7210;51.502;10.722;2022-12-18T09:00:07;50.07;;;18.77;;
14251;SDS011;7210;51.502;10.722;2022-12-18T09:02:40;52.97;;;18.67;;
14251;SDS011;7210;51.502;10.722;2022-12-18T09:05:10;59.93;;;19.33;;
14251;SDS011;7210;51.502;10.722;2022-12-18T09:07:37;51.50;;;20.27;;
14251;SDS011;7210;51.502;10.722;2022-12-18T09:10:05;50.97;;;20.03;;
14251;SDS011;7210;51.502;10.722;2022-12-18T09:12:33;56.47;;;24.13;;
14251;SDS011;7210;51.502;10.722;2022-12-18T09:15:00;46.57;;;25.47;;
14251;SDS011;7210;51.502;10.722;2022-12-18T09:17:28;73.30;;;25.93;;
14251;SDS011;7210;51.502;10.722;2022-12-18T09:19:56;86.67;;;26.33;;
14251;SDS011;7210;51.502;10.722;2022-12-18T09:22:24;65.73;;;27.10;;
14251;SDS011;7210;51.502;10.722;2022-12-18T09:24:51;78.97;;;24.67;;
14251;SDS011;7210;51.502;10.722;2022-12-18T09:27:19;48.73;;;23.57;;
14251;SDS011;7210;51.502;10.722;2022-12-18T09:29:46;51.60;;;23.33;;
14251;SDS011;7210;51.502;10.722;2022-12-18T09:32:13;79.97;;;25.63;;
14251;SDS011;7210;51.502;10.722;2022-12-18T09:34:41;86.30;;;29.10;;
14251;SDS011;7210;51.502;10.722;2022-12-18T09:37:14;78.70;;;26.60;;
14251;SDS011;7210;51.502;10.722;2022-12-18T09:39:41;72.37;;;23.43;;
14251;SDS011;7210;51.502;10.722;2022-12-18T09:42:12;140.27;;;25.73;;
14251;SDS011;7210;51.502;10.722;2022-12-18T09:44:48;78.43;;;24.33;;
14251;SDS011;7210;51.502;10.722;2022-12-18T09:47:19;86.27;;;24.70;;
14251;SDS011;7210;51.502;10.722;2022-12-18T09:49:56;88.80;;;25.30;;
14251;SDS011;7210;51.502;10.722;2022-12-18T09:52:29;123.73;;;26.93;;
14251;SDS011;7210;51.502;10.722;2022-12-18T09:55:05;98.97;;;25.13;;
14251;SDS011;7210;51.502;10.722;2022-12-18T09:57:53;113.80;;;26.07;;
14251;SDS011;7210;51.502;10.722;2022-12-18T10:00:26;67.20;;;25.57;;
14251;SDS011;7210;51.502;10.722;2022-12-18T10:02:56;61.13;;;23.37;;
14251;SDS011;7210;51.502;10.722;2022-12-18T10:05:33;59.27;;;23.93;;
14251;SDS011;7210;51.502;10.722;2022-12-18T10:08:13;72.33;;;24.37;;
14251;SDS011;7210;51.502;10.722;2022-12-18T10:10:53;70.57;;;26.27;;
14251;SDS011;7210;51.502;10.722;2022-12-18T10:13:28;63.83;;;26.20;;
14251;SDS011;7210;51.502;10.722;2022-12-18T10:16:09;56.93;;;23.43;;
14251;SDS011;7210;51.502;10.722;2022-12-18T10:21:49;38.17;;;22.37;;
14251;SDS011;7210;51.502;10.722;2022-12-18T10:24:28;55.07;;;22.23;;
14251;SDS011;7210;51.502;10.722;2022-12-18T10:27:09;43.90;;;21.87;;
14251;SDS011;7210;51.502;10.722;2022-12-18T10:29:41;74.03;;;24.73;;
14251;SDS011;7210;51.502;10.722;2022-12-18T10:32:13;49.20;;;22.67;;
14251;SDS011;7210;51.502;10.722;2022-12-18T10:34:46;48.60;;;27.97;;
14251;SDS011;7210;51.502;10.722;2022-12-18T10:37:19;63.47;;;22.67;;
14251;SDS011;7210;51.502;10.722;2022-12-18T10:40:04;77.63;;;27.37;;
14251;SDS011;7210;51.502;10.722;2022-12-18T10:42:37;70.70;;;24.67;;
14251;SDS011;7210;51.502;10.722;2022-12-18T10:45:08;42.37;;;22.70;;
14251;SDS011;7210;51.502;10.722;2022-12-18T10:47:41;47.33;;;22.77;;
14251;SDS011;7210;51.502;10.722;2022-12-18T10:50:18;46.60;;;22.90;;
14251;SDS011;7210;51.502;10.722;2022-12-18T10:52:56;64.00;;;24.83;;
14251;SDS011;7210;51.502;10.722;2022-12-18T10:55:30;49.33;;;24.60;;
14251;SDS011;7210;51.502;10.722;2022-12-18T10:58:13;38.37;;;22.07;;
14251;SDS011;7210;51.502;10.722;2022-12-18T11:01:01;41.87;;;22.40;;
14251;SDS011;7210;51.502;10.722;2022-12-18T11:03:37;40.50;;;23.53;;
14251;SDS011;7210;51.502;10.722;2022-12-18T11:06:08;46.17;;;24.07;;
14251;SDS011;7210;51.502;10.722;2022-12-18T11:08:38;46.77;;;24.57;;
14251;SDS011;7210;51.502;10.722;2022-12-18T11:11:15;45.10;;;25.10;;
14251;SDS011;7210;51.502;10.722;2022-12-18T11:13:50;40.87;;;23.83;;
14251;SDS011;7210;51.502;10.722;2022-12-18T11:16:29;43.57;;;24.83;;
14251;SDS011;7210;51.502;10.722;2022-12-18T11:19:13;40.83;;;25.27;;
14251;SDS011;7210;51.502;10.722;2022-12-18T11:21:53;36.47;;;22.67;;
14251;SDS011;7210;51.502;10.722;2022-12-18T11:24:24;39.87;;;23.10;;
14251;SDS011;7210;51.502;10.722;2022-12-18T11:26:59;36.00;;;22.93;;
14251;SDS011;7210;51.502;10.722;2022-12-18T11:29:33;39.67;;;23.73;;
14251;SDS011;7210;51.502;10.722;2022-12-18T11:34:57;37.63;;;23.27;;
14251;SDS011;7210;51.502;10.722;2022-12-18T11:37:36;40.57;;;24.37;;
14251;SDS011;7210;51.502;10.722;2022-12-18T11:40:10;39.57;;;24.53;;
14251;SDS011;7210;51.502;10.722;2022-12-18T11:42:46;39.97;;;24.67;;
14251;SDS011;7210;51.502;10.722;2022-12-18T11:45:25;36.77;;;23.90;;
14251;SDS011;7210;51.502;10.722;2022-12-18T11:48:01;52.00;;;25.80;;
14251;SDS011;7210;51.502;10.722;2022-12-18T11:50:44;38.60;;;23.97;;
14251;SDS011;7210;51.502;10.722;2022-12-18T11:53:16;38.73;;;24.40;;
14251;SDS011;7210;51.502;10.722;2022-12-18T11:55:57;34.53;;;23.83;;
14251;SDS011;7210;51.502;10.722;2022-12-18T11:58:46;32.40;;;22.80;;
14251;SDS011;7210;51.502;10.722;2022-12-18T12:01:24;39.20;;;24.43;;
14251;SDS011;7210;51.502;10.722;2022-12-18T12:04:19;34.27;;;23.03;;
14251;SDS011;7210;51.502;10.722;2022-12-18T12:07:09;37.30;;;23.77;;
14251;SDS011;7210;51.502;10.722;2022-12-18T12:09:52;35.60;;;23.30;;
14251;SDS011;7210;51.502;10.722;2022-12-18T12:12:33;35.23;;;23.93;;
14251;SDS011;7210;51.502;10.722;2022-12-18T12:15:23;451.07;;;70.30;;
14251;SDS011;7210;51.502;10.722;2022-12-18T12:18:07;40.67;;;25.87;;
14251;SDS011;7210;51.502;10.722;2022-12-18T12:20:49;37.80;;;23.57;;
14251;SDS011;7210;51.502;10.722;2022-12-18T12:23:28;43.77;;;26.67;;
14251;SDS011;7210;51.502;10.722;2022-12-18T12:26:06;42.33;;;26.70;;
14251;SDS011;7210;51.502;10.722;2022-12-18T12:28:46;41.17;;;25.97;;
14251;SDS011;7210;51.502;10.722;2022-12-18T12:31:40;43.57;;;26.30;;
14251;SDS011;7210;51.502;10.722;2022-12-18T12:34:31;39.80;;;25.63;;
14251;SDS011;7210;51.502;10.722;2022-12-18T12:37:15;40.77;;;25.50;;
14251;SDS011;7210;51.502;10.722;2022-12-18T12:39:55;38.87;;;24.37;;
14251;SDS011;7210;51.502;10.722;2022-12-18T12:42:26;44.10;;;25.63;;
14251;SDS011;7210;51.502;10.722;2022-12-18T12:45:19;38.03;;;24.20;;
14251;SDS011;7210;51.502;10.722;2022-12-18T12:47:57;38.73;;;23.90;;
14251;SDS011;7210;51.502;10.722;2022-12-18T12:50:30;61.20;;;23.67;;
14251;SDS011;7210;51.502;10.722;2022-12-18T12:53:02;45.47;;;23.07;;
14251;SDS011;7210;51.502;10.722;2022-12-18T12:55:37;36.47;;;22.97;;
14251;SDS011;7210;51.502;10.722;2022-12-18T12:58:07;39.07;;;23.60;;
14251;SDS011;7210;51.502;10.722;2022-12-18T13:00:45;36.90;;;22.83;;
14251;SDS011;7210;51.502;10.722;2022-12-18T13:03:29;38.23;;;22.80;;
14251;SDS011;7210;51.502;10.722;2022-12-18T13:06:08;43.07;;;23.23;;
14251;SDS011;7210;51.502;10.722;2022-12-18T13:08:54;42.87;;;26.10;;
14251;SDS011;7210;51.502;10.722;2022-12-18T13:11:37;42.07;;;24.10;;
14251;SDS011;7210;51.502;10.722;2022-12-18T13:14:26;52.97;;;24.63;;
14251;SDS011;7210;51.502;10.722;2022-12-18T13:20:04;35.10;;;20.87;;
14251;SDS011;7210;51.502;10.722;2022-12-18T13:22:37;83.63;;;29.27;;
14251;SDS011;7210;51.502;10.722;2022-12-18T13:28:04;38.97;;;20.70;;
14251;SDS011;7210;51.502;10.722;2022-12-18T13:30:42;43.57;;;21.73;;
14251;SDS011;7210;51.502;10.722;2022-12-18T13:33:38;38.40;;;21.80;;
14251;SDS011;7210;51.502;10.722;2022-12-18T13:36:12;83.43;;;27.60;;
14251;SDS011;7210;51.502;10.722;2022-12-18T13:39:10;34.43;;;20.97;;
14251;SDS011;7210;51.502;10.722;2022-12-18T13:41:49;34.03;;;20.53;;
14251;SDS011;7210;51.502;10.722;2022-12-18T13:44:24;40.90;;;21.93;;
14251;SDS011;7210;51.502;10.722;2022-12-18T13:46:58;54.57;;;23.67;;
14251;SDS011;7210;51.502;10.722;2022-12-18T13:49:30;32.80;;;20.80;;
14251;SDS011;7210;51.502;10.722;2022-12-18T13:52:15;44.93;;;21.73;;
14251;SDS011;7210;51.502;10.722;2022-12-18T13:54:49;32.37;;;18.77;;
14251;SDS011;7210;51.502;10.722;2022-12-18T13:57:25;35.30;;;19.27;;
14251;SDS011;7210;51.502;10.722;2022-12-18T13:59:56;32.43;;;20.10;;
14251;SDS011;7210;51.502;10.722;2022-12-18T14:02:24;37.50;;;20.30;;
14251;SDS011;7210;51.502;10.722;2022-12-18T14:04:53;34.37;;;19.90;;
14251;SDS011;7210;51.502;10.722;2022-12-18T14:07:23;29.17;;;18.57;;
14251;SDS011;7210;51.502;10.722;2022-12-18T14:09:54;30.93;;;20.00;;
14251;SDS011;7210;51.502;10.722;2022-12-18T14:12:25;29.97;;;19.77;;
14251;SDS011;7210;51.502;10.722;2022-12-18T14:15:16;31.73;;;18.63;;
14251;SDS011;7210;51.502;10.722;2022-12-18T14:17:57;33.63;;;18.33;;
14251;SDS011;7210;51.502;10.722;2022-12-18T14:20:31;33.10;;;19.53;;
14251;SDS011;7210;51.502;10.722;2022-12-18T14:23:00;29.90;;;19.83;;
14251;SDS011;7210;51.502;10.722;2022-12-18T14:25:28;34.07;;;21.73;;
14251;SDS011;7210;51.502;10.722;2022-12-18T14:28:02;37.97;;;21.97;;
14251;SDS011;7210;51.502;10.722;2022-12-18T14:30:42;31.03;;;19.63;;
14251;SDS011;7210;51.502;10.722;2022-12-18T14:33:13;36.37;;;21.07;;
14251;SDS011;7210;51.502;10.722;2022-12-18T14:35:51;32.13;;;19.97;;
14251;SDS011;7210;51.502;10.722;2022-12-18T14:38:24;28.97;;;19.03;;
14251;SDS011;7210;51.502;10.722;2022-12-18T14:41:00;32.67;;;20.17;;
14251;SDS011;7210;51.502;10.722;2022-12-18T14:43:31;30.83;;;18.57;;
14251;SDS011;7210;51.502;10.722;2022-12-18T14:46:01;30.50;;;19.17;;
14251;SDS011;7210;51.502;10.722;2022-12-18T14:48:36;32.50;;;19.37;;
14251;SDS011;7210;51.502;10.722;2022-12-18T14:51:06;27.33;;;18.27;;
14251;SDS011;7210;51.502;10.722;2022-12-18T14:53:45;25.47;;;16.60;;
14251;SDS011;7210;51.502;10.722;2022-12-18T14:56:16;25.17;;;16.23;;
14251;SDS011;7210;51.502;10.722;2022-12-18T14:58:47;26.43;;;16.00;;
14251;SDS011;7210;51.502;10.722;2022-12-18T15:01:22;22.13;;;16.03;;
14251;SDS011;7210;51.502;10.722;2022-12-18T15:03:53;26.73;;;16.33;;
14251;SDS011;7210;51.502;10.722;2022-12-18T15:06:32;27.27;;;18.20;;